createdAt,value
2018-07-04T00:02:04.852Z,24.19
2018-07-04T00:04:51.868Z,24.27
2018-07-04T00:07:39.293Z,24.18
2018-07-04T00:10:26.614Z,24.30
2018-07-04T00:13:13.744Z,24.00
2018-07-04T00:16:00.831Z,23.91
2018-07-04T00:18:47.861Z,23.89
2018-07-04T00:21:34.766Z,23.87
2018-07-04T00:24:23.219Z,23.78
2018-07-04T00:27:11.165Z,23.71
2018-07-04T00:29:58.238Z,23.67
2018-07-04T00:32:45.496Z,23.61
2018-07-04T00:35:32.894Z,23.54
2018-07-04T00:38:19.606Z,23.54
2018-07-04T00:41:06.641Z,23.56
2018-07-04T00:43:53.459Z,23.53
2018-07-04T00:46:40.408Z,23.57
2018-07-04T00:49:27.682Z,23.62
2018-07-04T00:52:14.867Z,23.63
2018-07-04T00:55:01.884Z,23.67
2018-07-04T00:57:49.040Z,23.66
2018-07-04T01:00:35.936Z,23.56
2018-07-04T01:03:23.069Z,23.47
2018-07-04T01:06:10.183Z,23.49
2018-07-04T01:09:01.608Z,23.53
2018-07-04T01:11:48.722Z,23.54
2018-07-04T01:14:35.801Z,23.39
2018-07-04T01:17:23.059Z,23.34
2018-07-04T01:20:10.176Z,23.27
2018-07-04T01:22:57.495Z,23.19
2018-07-04T01:25:44.818Z,23.10
2018-07-04T01:28:37.155Z,23.11
2018-07-04T01:31:24.176Z,22.95
2018-07-04T01:34:11.312Z,22.93
2018-07-04T01:36:58.311Z,22.90
2018-07-04T01:39:45.390Z,22.88
2018-07-04T01:42:32.387Z,22.86
2018-07-04T01:45:19.353Z,22.84
2018-07-04T01:48:06.566Z,22.85
2018-07-04T01:50:53.657Z,22.83
2018-07-04T01:53:40.809Z,22.75
2018-07-04T01:56:28.021Z,22.78
2018-07-04T01:59:15.020Z,22.74
2018-07-04T02:02:02.663Z,22.75
2018-07-04T02:04:49.781Z,22.68
2018-07-04T02:07:37.018Z,22.69
2018-07-04T02:10:24.199Z,22.52
2018-07-04T02:13:11.335Z,22.48
2018-07-04T02:15:58.424Z,22.50
2018-07-04T02:18:45.782Z,22.38
2018-07-04T02:21:32.956Z,22.28
2018-07-04T02:24:19.997Z,22.17
2018-07-04T02:27:07.227Z,22.23
2018-07-04T02:29:54.267Z,22.15
2018-07-04T02:32:41.446Z,22.07
2018-07-04T02:35:28.536Z,22.04
2018-07-04T02:38:15.677Z,21.99
2018-07-04T02:41:02.844Z,21.94
2018-07-04T02:43:49.930Z,21.86
2018-07-04T02:46:39.299Z,21.85
2018-07-04T02:49:26.450Z,21.86
2018-07-04T02:52:13.509Z,21.76
2018-07-04T02:55:00.523Z,21.73
2018-07-04T02:57:47.597Z,21.70
2018-07-04T03:00:35.214Z,21.61
2018-07-04T03:03:22.310Z,21.67
2018-07-04T03:06:09.235Z,21.75
2018-07-04T03:08:56.345Z,21.69
2018-07-04T03:11:43.373Z,21.70
2018-07-04T03:14:30.266Z,21.65
2018-07-04T03:17:17.609Z,21.76
2018-07-04T03:20:04.806Z,21.86
2018-07-04T03:22:51.884Z,21.86
2018-07-04T03:25:39.100Z,21.93
2018-07-04T03:28:26.143Z,22.00
2018-07-04T03:31:13.343Z,21.98
2018-07-04T03:34:00.412Z,22.18
2018-07-04T03:36:47.612Z,22.37
2018-07-04T03:39:34.705Z,22.35
2018-07-04T03:42:21.760Z,22.41
2018-07-04T03:45:08.938Z,22.39
2018-07-04T03:47:56.081Z,22.44
2018-07-04T03:50:43.175Z,22.49
2018-07-04T03:53:30.520Z,22.82
2018-07-04T03:56:17.636Z,23.41
2018-07-04T03:59:04.818Z,24.05
2018-07-04T04:01:51.932Z,24.30
2018-07-04T04:04:39.398Z,24.79
2018-07-04T04:07:26.617Z,25.25
2018-07-04T04:10:13.739Z,25.60
2018-07-04T04:13:00.746Z,25.95
2018-07-04T04:15:47.876Z,26.18
2018-07-04T04:18:34.955Z,26.65
2018-07-04T04:21:22.221Z,26.65
2018-07-04T04:24:09.521Z,27.04
2018-07-04T04:26:56.563Z,27.07
2018-07-04T04:29:43.656Z,27.01
2018-07-04T04:32:30.821Z,27.14
2018-07-04T04:35:17.705Z,27.38
2018-07-04T04:38:04.902Z,28.08
2018-07-04T04:40:51.918Z,28.29
2018-07-04T04:43:39.003Z,28.64
2018-07-04T04:46:26.215Z,29.00
2018-07-04T04:49:13.383Z,29.53
2018-07-04T04:52:00.383Z,29.59
2018-07-04T04:54:47.414Z,29.84
2018-07-04T04:57:34.482Z,30.06
2018-07-04T05:00:21.543Z,30.13
2018-07-04T05:03:08.647Z,30.33
2018-07-04T05:05:56.783Z,30.75
2018-07-04T05:08:43.718Z,31.20
2018-07-04T05:11:31.847Z,31.22
2018-07-04T05:14:18.960Z,31.22
2018-07-04T05:17:06.077Z,31.23
2018-07-04T05:19:53.507Z,30.76
2018-07-04T05:22:40.647Z,31.68
2018-07-04T05:25:27.717Z,32.33
2018-07-04T05:28:14.979Z,32.20
2018-07-04T05:31:02.176Z,31.76
2018-07-04T05:33:49.413Z,31.43
2018-07-04T05:36:36.836Z,31.65
2018-07-04T05:39:23.731Z,32.08
2018-07-04T05:42:10.949Z,32.61
2018-07-04T05:44:59.102Z,33.26
2018-07-04T05:47:46.413Z,33.32
2018-07-04T05:50:33.528Z,34.16
2018-07-04T05:53:20.577Z,33.85
2018-07-04T05:56:07.946Z,34.00
2018-07-04T05:58:55.228Z,33.65
2018-07-04T06:01:42.802Z,33.88
2018-07-04T06:04:29.933Z,33.66
2018-07-04T06:07:17.065Z,33.58
2018-07-04T06:10:04.267Z,34.04
2018-07-04T06:12:51.386Z,34.79
2018-07-04T06:15:38.581Z,34.95
2018-07-04T06:18:25.697Z,35.03
2018-07-04T06:21:12.841Z,35.14
2018-07-04T06:24:00.265Z,35.09
2018-07-04T06:26:47.493Z,35.70
2018-07-04T06:29:35.330Z,35.04
2018-07-04T06:32:22.554Z,35.41
2018-07-04T06:35:09.759Z,34.96
2018-07-04T06:37:44.384Z,35.74
2018-07-04T06:40:13.086Z,35.97
2018-07-04T06:42:41.568Z,35.46
2018-07-04T06:45:10.133Z,35.70
2018-07-04T06:47:38.608Z,35.21
2018-07-04T06:50:07.244Z,36.08
2018-07-04T06:52:35.568Z,36.23
2018-07-04T06:55:04.149Z,36.93
2018-07-04T06:57:32.702Z,35.87
2018-07-04T07:00:01.252Z,36.16
2018-07-04T07:02:29.658Z,36.92
2018-07-04T07:05:10.475Z,37.31
2018-07-04T07:07:58.093Z,38.26
2018-07-04T07:10:45.209Z,36.78
2018-07-04T07:13:32.533Z,37.03
2018-07-04T07:16:19.649Z,36.96
2018-07-04T07:19:06.828Z,36.86
2018-07-04T07:21:55.313Z,37.23
2018-07-04T07:24:42.431Z,36.38
2018-07-04T07:27:29.462Z,35.58
2018-07-04T07:30:16.679Z,37.06
2018-07-04T07:33:03.861Z,37.39
2018-07-04T07:35:51.006Z,36.01
2018-07-04T07:38:38.325Z,37.89
2018-07-04T07:41:25.296Z,38.45
2018-07-04T07:44:12.559Z,37.64
2018-07-04T07:46:59.616Z,37.49
2018-07-04T07:49:46.595Z,38.31
2018-07-04T07:52:33.847Z,38.11
2018-07-04T07:55:21.024Z,39.47
2018-07-04T07:58:07.796Z,38.86
2018-07-04T08:00:55.019Z,37.71
2018-07-04T08:03:41.975Z,38.39
2018-07-04T08:06:29.293Z,39.59
2018-07-04T08:09:16.651Z,39.02
2018-07-04T08:12:03.749Z,39.21
2018-07-04T08:14:51.255Z,38.30
2018-07-04T08:17:38.492Z,38.38
2018-07-04T08:20:25.591Z,38.52
2018-07-04T08:23:12.625Z,39.18
2018-07-04T08:25:59.703Z,40.04
2018-07-04T08:28:47.158Z,40.17
2018-07-04T08:31:34.246Z,40.40
2018-07-04T08:34:21.341Z,39.95
2018-07-04T08:37:08.499Z,40.66
2018-07-04T08:39:55.717Z,40.84
2018-07-04T08:42:43.111Z,39.01
2018-07-04T08:45:30.328Z,39.08
2018-07-04T08:48:17.285Z,38.49
2018-07-04T08:51:04.495Z,38.90
2018-07-04T08:53:52.432Z,39.23
2018-07-04T08:56:39.647Z,38.97
2018-07-04T08:59:26.571Z,38.80
2018-07-04T09:02:13.654Z,38.70
2018-07-04T09:05:00.798Z,39.45
2018-07-04T09:07:48.015Z,38.69
2018-07-04T09:10:35.335Z,39.69
2018-07-04T09:13:22.566Z,39.23
2018-07-04T09:16:09.799Z,39.66
2018-07-04T09:18:57.099Z,38.77
2018-07-04T09:21:44.624Z,39.43
2018-07-04T09:24:31.703Z,39.50
2018-07-04T09:27:18.870Z,39.21
2018-07-04T09:30:05.871Z,38.86
2018-07-04T09:32:53.227Z,38.51
2018-07-04T09:35:40.213Z,39.92
2018-07-04T09:38:27.769Z,39.91
2018-07-04T09:41:15.161Z,39.02
2018-07-04T09:44:02.200Z,39.65
2018-07-04T09:46:49.581Z,40.10
2018-07-04T09:49:36.775Z,39.09
2018-07-04T09:52:23.835Z,38.65
2018-07-04T09:55:10.949Z,38.93
2018-07-04T09:57:58.146Z,39.11
2018-07-04T10:00:50.303Z,40.05
2018-07-04T10:03:37.522Z,40.10
2018-07-04T10:06:24.753Z,39.19
2018-07-04T10:09:11.927Z,38.51
2018-07-04T10:11:59.494Z,39.11
2018-07-04T10:14:47.292Z,39.13
2018-07-04T10:17:34.541Z,40.23
2018-07-04T10:20:21.769Z,39.23
2018-07-04T10:23:08.774Z,40.04
2018-07-04T10:25:55.992Z,39.57
2018-07-04T10:28:43.204Z,40.78
2018-07-04T10:31:30.432Z,40.11
2018-07-04T10:34:17.814Z,40.46
2018-07-04T10:37:04.799Z,40.56
2018-07-04T10:39:52.009Z,39.87
2018-07-04T10:42:39.211Z,40.15
2018-07-04T10:45:26.246Z,39.65
2018-07-04T10:48:13.242Z,39.49
2018-07-04T10:51:00.344Z,40.56
2018-07-04T10:53:47.575Z,40.43
2018-07-04T10:56:34.719Z,40.19
2018-07-04T10:59:23.490Z,40.11
2018-07-04T11:02:10.681Z,40.45
2018-07-04T11:04:57.681Z,40.23
2018-07-04T11:07:44.924Z,40.65
2018-07-04T11:10:31.913Z,41.88
2018-07-04T11:13:19.053Z,40.38
2018-07-04T11:16:06.425Z,39.20
2018-07-04T11:18:53.470Z,39.52
2018-07-04T11:21:40.795Z,38.40
2018-07-04T11:24:27.799Z,38.51
2018-07-04T11:27:15.036Z,38.68
2018-07-04T11:30:02.150Z,38.87
2018-07-04T11:32:48.955Z,37.71
2018-07-04T11:35:36.275Z,35.85
2018-07-04T11:38:23.564Z,35.50
2018-07-04T11:41:10.711Z,35.05
2018-07-04T11:43:58.038Z,35.00
2018-07-04T11:46:32.685Z,34.75
2018-07-04T11:49:01.888Z,34.61
2018-07-04T11:51:30.336Z,34.51
2018-07-04T11:53:59.035Z,34.43
2018-07-04T11:56:27.292Z,34.57
2018-07-04T11:58:55.692Z,34.90
2018-07-04T12:01:24.184Z,35.11
2018-07-04T12:04:05.231Z,35.29
2018-07-04T12:06:52.041Z,34.83
2018-07-04T12:09:26.790Z,35.12
2018-07-04T12:11:55.260Z,34.73
2018-07-04T12:14:23.727Z,34.83
2018-07-04T12:16:52.313Z,34.78
2018-07-04T12:19:20.802Z,34.57
2018-07-04T12:21:49.374Z,34.52
2018-07-04T12:24:17.956Z,34.47
2018-07-04T12:26:46.347Z,34.73
2018-07-04T12:29:14.713Z,34.43
2018-07-04T12:31:43.191Z,34.65
2018-07-04T12:34:11.777Z,34.94
2018-07-04T12:36:40.319Z,34.92
2018-07-04T12:39:08.839Z,35.09
2018-07-04T12:41:37.233Z,35.09
2018-07-04T12:44:05.702Z,35.02
2018-07-04T12:46:34.118Z,34.81
2018-07-04T12:49:03.593Z,34.76
2018-07-04T12:51:33.286Z,34.97
2018-07-04T12:54:06.603Z,34.99
2018-07-04T12:56:47.559Z,34.84
2018-07-04T12:59:34.619Z,35.01
2018-07-04T13:02:21.791Z,34.89
2018-07-04T13:05:08.901Z,34.75
2018-07-04T13:07:56.122Z,34.61
2018-07-04T13:10:43.280Z,34.20
2018-07-04T13:13:31.077Z,34.23
2018-07-04T13:16:18.207Z,34.42
2018-07-04T13:19:05.155Z,34.66
2018-07-04T13:21:52.413Z,34.77
2018-07-04T13:24:39.537Z,34.65
2018-07-04T13:27:27.170Z,34.56
2018-07-04T13:30:15.308Z,34.37
2018-07-04T13:33:02.530Z,34.41
2018-07-04T13:35:49.754Z,34.80
2018-07-04T13:38:37.433Z,34.55
2018-07-04T13:41:24.407Z,34.50
2018-07-04T13:44:11.953Z,34.26
2018-07-04T13:46:59.260Z,34.13
2018-07-04T13:49:46.387Z,34.18
2018-07-04T13:52:33.674Z,34.06
2018-07-04T13:55:21.313Z,34.00
2018-07-04T13:58:08.600Z,34.23
2018-07-04T14:00:55.739Z,34.28
2018-07-04T14:03:43.030Z,34.33
2018-07-04T14:06:31.003Z,34.46
2018-07-04T14:09:18.426Z,34.57
2018-07-04T14:12:05.957Z,34.82
2018-07-04T14:14:53.226Z,35.01
2018-07-04T14:17:40.495Z,35.12
2018-07-04T14:20:27.710Z,35.25
2018-07-04T14:23:14.940Z,35.31
2018-07-04T14:26:02.157Z,34.95
2018-07-04T14:28:49.780Z,34.76
2018-07-04T14:31:37.000Z,35.10
2018-07-04T14:34:24.453Z,35.13
2018-07-04T14:37:11.541Z,34.69
2018-07-04T14:39:58.754Z,34.67
2018-07-04T14:42:45.880Z,34.73
2018-07-04T14:45:32.997Z,34.75
2018-07-04T14:48:20.319Z,34.51
2018-07-04T14:51:07.640Z,34.59
2018-07-04T14:53:54.859Z,34.81
2018-07-04T14:56:42.078Z,34.65
2018-07-04T14:59:29.194Z,34.82
2018-07-04T15:02:16.375Z,34.80
2018-07-04T15:05:03.429Z,34.95
2018-07-04T15:07:50.635Z,35.00
2018-07-04T15:10:37.485Z,34.95
2018-07-04T15:13:24.780Z,35.07
2018-07-04T15:16:11.691Z,34.55
2018-07-04T15:18:58.911Z,34.88
2018-07-04T15:21:46.086Z,34.68
2018-07-04T15:24:33.457Z,34.50
2018-07-04T15:27:20.546Z,34.47
2018-07-04T15:30:07.789Z,34.65
2018-07-04T15:32:54.934Z,34.59
2018-07-04T15:35:42.022Z,34.55
2018-07-04T15:38:29.449Z,34.64
2018-07-04T15:41:17.283Z,34.61
2018-07-04T15:44:04.399Z,34.27
2018-07-04T15:46:51.718Z,34.15
2018-07-04T15:49:38.712Z,33.85
2018-07-04T15:52:26.045Z,33.72
2018-07-04T15:55:13.378Z,33.80
2018-07-04T15:58:00.759Z,33.79
2018-07-04T16:00:48.094Z,33.96
2018-07-04T16:03:35.343Z,33.64
2018-07-04T16:06:22.445Z,33.88
2018-07-04T16:09:09.477Z,33.83
2018-07-04T16:11:57.000Z,33.68
2018-07-04T16:14:44.067Z,33.52
2018-07-04T16:17:32.362Z,33.26
2018-07-04T16:20:19.282Z,33.08
2018-07-04T16:23:06.699Z,33.07
2018-07-04T16:25:53.918Z,32.96
2018-07-04T16:28:41.241Z,33.02
2018-07-04T16:31:28.355Z,33.07
2018-07-04T16:34:15.578Z,32.96
2018-07-04T16:37:02.796Z,32.92
2018-07-04T16:39:49.930Z,32.70
2018-07-04T16:42:37.348Z,32.35
2018-07-04T16:45:24.517Z,31.67
2018-07-04T16:48:11.617Z,31.59
2018-07-04T16:50:58.651Z,31.15
2018-07-04T16:53:45.733Z,30.78
2018-07-04T16:56:32.817Z,30.60
2018-07-04T16:59:19.886Z,30.50
2018-07-04T17:02:07.122Z,30.26
2018-07-04T17:04:54.874Z,30.07
2018-07-04T17:07:42.117Z,30.05
2018-07-04T17:10:29.683Z,29.57
2018-07-04T17:13:17.055Z,29.12
2018-07-04T17:16:04.175Z,28.78
2018-07-04T17:18:51.701Z,28.47
2018-07-04T17:21:38.812Z,28.25
2018-07-04T17:24:26.164Z,28.15
2018-07-04T17:27:13.461Z,27.98
2018-07-04T17:30:00.683Z,27.90
2018-07-04T17:32:47.802Z,27.83
2018-07-04T17:35:34.694Z,27.75
2018-07-04T17:38:22.042Z,27.74
2018-07-04T17:41:09.451Z,27.72
2018-07-04T17:43:56.686Z,27.70
2018-07-04T17:46:44.589Z,27.76
2018-07-04T17:49:39.012Z,27.58
2018-07-04T17:52:25.912Z,27.53
2018-07-04T17:55:13.186Z,27.45
2018-07-04T17:58:00.485Z,27.46
2018-07-04T18:00:47.871Z,27.44
2018-07-04T18:03:35.511Z,27.41
2018-07-04T18:06:22.648Z,27.39
2018-07-04T18:09:11.594Z,27.31
2018-07-04T18:11:58.747Z,27.26
2018-07-04T18:14:45.911Z,27.26
2018-07-04T18:17:33.246Z,27.23
2018-07-04T18:20:20.839Z,27.14
2018-07-04T18:23:07.985Z,27.23
2018-07-04T18:25:55.101Z,27.22
2018-07-04T18:28:42.285Z,27.12
2018-07-04T18:31:29.336Z,27.01
2018-07-04T18:34:16.759Z,27.03
2018-07-04T18:37:03.979Z,26.97
2018-07-04T18:39:51.214Z,26.96
2018-07-04T18:42:38.373Z,26.86
2018-07-04T18:45:25.550Z,26.81
2018-07-04T18:48:13.282Z,26.80
2018-07-04T18:51:00.343Z,26.74
2018-07-04T18:53:47.729Z,26.76
2018-07-04T18:56:35.042Z,26.80
2018-07-04T18:59:22.251Z,26.73
2018-07-04T19:02:09.357Z,26.82
2018-07-04T19:04:56.562Z,26.79
2018-07-04T19:07:43.628Z,26.84
2018-07-04T19:10:31.022Z,26.74
2018-07-04T19:13:18.218Z,26.74
2018-07-04T19:16:05.258Z,26.72
2018-07-04T19:18:52.988Z,26.64
2018-07-04T19:21:40.338Z,26.49
2018-07-04T19:24:27.429Z,26.48
2018-07-04T19:27:14.770Z,26.43
2018-07-04T19:30:02.172Z,26.39
2018-07-04T19:32:49.495Z,26.38
2018-07-04T19:35:37.131Z,26.28
2018-07-04T19:38:24.137Z,26.30
2018-07-04T19:41:11.564Z,26.25
2018-07-04T19:43:59.291Z,25.63
2018-07-04T19:46:46.409Z,26.05
2018-07-04T19:49:33.632Z,26.11
2018-07-04T19:52:20.956Z,26.12
2018-07-04T19:55:08.380Z,26.05
2018-07-04T19:57:55.541Z,25.96
2018-07-04T20:00:44.352Z,25.92
2018-07-04T20:03:31.421Z,25.97
2018-07-04T20:06:18.479Z,26.06
2018-07-04T20:09:05.902Z,26.05
2018-07-04T20:11:54.174Z,25.96
2018-07-04T20:14:41.367Z,25.97
2018-07-04T20:17:28.585Z,25.90
2018-07-04T20:20:15.809Z,25.76
2018-07-04T20:23:02.946Z,25.66
2018-07-04T20:25:50.349Z,25.53
2018-07-04T20:28:37.378Z,25.46
2018-07-04T20:31:24.688Z,25.31
2018-07-04T20:34:12.006Z,25.36
2018-07-04T20:36:59.532Z,25.16
2018-07-04T20:39:46.659Z,25.18
2018-07-04T20:42:33.834Z,25.18
2018-07-04T20:45:21.202Z,25.15
2018-07-04T20:48:08.515Z,25.02
2018-07-04T20:50:55.629Z,24.99
2018-07-04T20:53:43.156Z,24.95
2018-07-04T20:56:30.273Z,24.80
2018-07-04T20:59:17.228Z,25.00
2018-07-04T21:02:05.572Z,24.84
2018-07-04T21:04:52.855Z,24.58
2018-07-04T21:07:40.051Z,24.78
2018-07-04T21:10:27.304Z,24.68
2018-07-04T21:13:14.682Z,24.61
2018-07-04T21:16:02.039Z,24.60
2018-07-04T21:18:49.317Z,24.52
2018-07-04T21:21:36.785Z,24.54
2018-07-04T21:24:24.132Z,24.62
2018-07-04T21:27:11.513Z,24.55
2018-07-04T21:29:58.957Z,24.55
2018-07-04T21:32:46.298Z,24.50
2018-07-04T21:35:33.804Z,24.46
2018-07-04T21:38:21.450Z,24.37
2018-07-04T21:41:08.460Z,24.28
2018-07-04T21:43:56.062Z,24.25
2018-07-04T21:46:43.402Z,24.17
2018-07-04T21:49:31.485Z,24.32
2018-07-04T21:52:18.758Z,24.47
2018-07-04T21:55:06.910Z,24.36
2018-07-04T21:57:55.191Z,24.32
2018-07-04T22:00:42.463Z,24.27
2018-07-04T22:03:29.893Z,24.24
2018-07-04T22:06:18.335Z,24.18
2018-07-04T22:09:05.770Z,24.12
2018-07-04T22:11:53.200Z,23.99
2018-07-04T22:14:40.403Z,23.93
2018-07-04T22:17:27.677Z,23.93
2018-07-04T22:20:14.817Z,23.86
2018-07-04T22:23:01.960Z,23.91
2018-07-04T22:25:49.181Z,23.82
2018-07-04T22:28:37.113Z,23.84
2018-07-04T22:31:24.645Z,23.85
2018-07-04T22:34:12.087Z,23.78
2018-07-04T22:36:59.290Z,23.75
2018-07-04T22:39:46.505Z,23.76
2018-07-04T22:42:34.143Z,23.68
2018-07-04T22:45:22.193Z,23.53
2018-07-04T22:48:09.287Z,23.33
2018-07-04T22:50:56.519Z,23.26
2018-07-04T22:53:43.641Z,23.33
2018-07-04T22:56:31.723Z,23.20
2018-07-04T22:59:18.900Z,23.07
2018-07-04T23:02:05.968Z,22.99
2018-07-04T23:04:53.238Z,22.89
2018-07-04T23:07:40.515Z,22.83
2018-07-04T23:10:27.672Z,22.76
2018-07-04T23:13:16.108Z,22.73
2018-07-04T23:16:03.583Z,22.62
2018-07-04T23:18:50.857Z,22.53
2018-07-04T23:21:38.277Z,22.54
2018-07-04T23:24:25.709Z,22.46
2018-07-04T23:27:12.902Z,22.43
2018-07-04T23:30:00.319Z,22.36
2018-07-04T23:32:47.673Z,22.39
2018-07-04T23:35:35.422Z,22.36
2018-07-04T23:38:22.866Z,22.34
2018-07-04T23:41:10.808Z,22.29
2018-07-04T23:43:57.873Z,22.31
2018-07-04T23:46:45.094Z,22.29
2018-07-04T23:49:32.521Z,22.15
2018-07-04T23:52:20.045Z,22.19
2018-07-04T23:55:07.367Z,22.19
2018-07-04T23:57:54.463Z,22.10
